Time;durP1;ratioP1;P1;durP2;ratioP2;P2;SDS_P1;SDS_P2;PMS_P1;PMS_P2;Temp;Humidity;BMP_temperature;BMP_pressure;BME280_temperature;BME280_humidity;BME280_pressure;Samples;Min_cycle;Max_cycle;Signal;HPM_P1;HPM_P2
2023/10/13 00:02:08;;;;;;;4.32;1.48;;;24.30;41.30;;;;;;2266518;55;20997;-67
2023/10/13 00:04:54;;;;;;;3.45;1.50;;;24.20;41.20;;;;;;2261248;55;20962;-68
2023/10/13 00:07:20;;;;;;;4.18;1.42;;;24.20;41.20;;;;;;2255430;55;21403;-66
2023/10/13 00:09:48;;;;;;;3.80;1.52;;;24.20;41.20;;;;;;2483380;55;21026;-67
2023/10/13 00:12:15;;;;;;;4.30;1.40;;;24.20;41.40;;;;;;2255245;55;21078;-66
2023/10/13 00:14:41;;;;;;;4.60;1.98;;;24.10;41.40;;;;;;2255649;55;20946;-69
2023/10/13 00:17:15;;;;;;;3.65;1.50;;;24.10;41.40;;;;;;2266534;55;21814;-64
2023/10/13 00:19:45;;;;;;;3.15;1.52;;;24.10;41.60;;;;;;2488079;55;21034;-66
2023/10/13 00:22:15;;;;;;;5.10;1.95;;;24.00;41.60;;;;;;2255580;55;22173;-66
2023/10/13 00:24:43;;;;;;;3.83;1.50;;;24.00;41.60;;;;;;2255881;55;20978;-68
2023/10/13 00:27:24;;;;;;;3.47;1.48;;;24.00;41.60;;;;;;2255115;55;21034;-66
2023/10/13 00:29:51;;;;;;;3.17;1.60;;;23.90;41.60;;;;;;2483466;55;20978;-70
2023/10/13 00:32:26;;;;;;;4.70;1.50;;;23.90;41.60;;;;;;2255876;55;21050;-70
2023/10/13 00:34:56;;;;;;;3.12;1.40;;;23.80;41.60;;;;;;2490440;55;21067;-67
2023/10/13 00:37:28;;;;;;;4.25;1.65;;;23.80;41.60;;;;;;2283479;55;20988;-66
2023/10/13 00:39:56;;;;;;;3.40;1.73;;;23.80;41.90;;;;;;2277989;55;21003;-67
2023/10/13 00:42:47;;;;;;;2.85;1.30;;;23.60;41.80;;;;;;2512067;55;21968;-66
2023/10/13 00:45:16;;;;;;;3.10;1.45;;;23.60;41.90;;;;;;2285540;55;21587;-65
2023/10/13 00:47:56;;;;;;;4.28;1.77;;;23.60;41.80;;;;;;2287328;55;21240;-66
2023/10/13 00:50:23;;;;;;;4.12;1.62;;;23.50;41.90;;;;;;2269206;55;20958;-69
2023/10/13 00:52:53;;;;;;;4.75;1.87;;;23.50;42.00;;;;;;2284412;55;21003;-65
2023/10/13 00:55:22;;;;;;;4.55;1.60;;;23.40;42.00;;;;;;2284131;55;21610;-68
2023/10/13 00:57:54;;;;;;;4.00;1.62;;;23.40;42.10;;;;;;2515914;55;20958;-66
2023/10/13 01:00:25;;;;;;;3.90;1.55;;;23.30;42.10;;;;;;2284907;55;20962;-67
2023/10/13 01:02:56;;;;;;;3.55;1.65;;;23.20;42.10;;;;;;2285238;55;21053;-67
2023/10/13 01:05:26;;;;;;;4.60;1.60;;;23.20;42.20;;;;;;2519056;55;21458;-68
2023/10/13 01:07:56;;;;;;;5.78;1.90;;;23.20;42.40;;;;;;2285307;55;21038;-66
2023/10/13 01:10:27;;;;;;;3.67;1.58;;;23.10;42.30;;;;;;2516631;55;20984;-66
2023/10/13 01:12:59;;;;;;;3.65;1.40;;;23.00;42.30;;;;;;2515908;55;21054;-66
2023/10/13 01:15:33;;;;;;;4.57;1.70;;;23.00;42.40;;;;;;2517829;54;20954;-66
2023/10/13 01:18:13;;;;;;;3.33;1.62;;;22.90;42.40;;;;;;2482828;55;20971;-66
2023/10/13 01:20:43;;;;;;;3.50;1.45;;;22.90;42.50;;;;;;2498514;55;21439;-66
2023/10/13 01:23:24;;;;;;;3.30;1.65;;;22.80;42.40;;;;;;2481041;55;21074;-66
2023/10/13 01:25:53;;;;;;;5.35;1.60;;;22.80;42.50;;;;;;2254679;55;21493;-66
2023/10/13 01:28:21;;;;;;;3.65;1.77;;;22.70;42.50;;;;;;2256253;55;20994;-68
2023/10/13 01:30:51;;;;;;;3.62;1.50;;;22.60;42.50;;;;;;2255749;55;20994;-66
2023/10/13 01:33:26;;;;;;;4.55;1.87;;;22.50;42.60;;;;;;2266994;55;20961;-67
2023/10/13 01:35:53;;;;;;;3.05;1.48;;;22.50;42.70;;;;;;2462923;55;21479;-68
2023/10/13 01:38:19;;;;;;;2.67;1.20;;;22.40;42.70;;;;;;2482513;55;21797;-67
2023/10/13 01:40:51;;;;;;;4.35;1.60;;;22.40;42.80;;;;;;2482992;55;21486;-68
2023/10/13 01:43:17;;;;;;;3.45;1.37;;;22.30;42.70;;;;;;2255209;55;21014;-68
2023/10/13 01:45:47;;;;;;;2.97;1.27;;;22.30;42.70;;;;;;2255660;55;20970;-66
2023/10/13 01:48:18;;;;;;;3.00;1.25;;;22.20;42.70;;;;;;2482346;55;21010;-67
2023/10/13 01:50:47;;;;;;;3.67;1.70;;;22.20;42.80;;;;;;2254723;55;20990;-67
2023/10/13 01:53:17;;;;;;;5.47;1.67;;;22.10;42.90;;;;;;2266756;55;20953;-68
2023/10/13 01:55:44;;;;;;;4.07;1.67;;;22.00;42.90;;;;;;2261875;55;20998;-70
2023/10/13 01:58:15;;;;;;;3.65;1.42;;;22.00;43.00;;;;;;2254935;55;20948;-67
2023/10/13 02:00:44;;;;;;;3.95;1.92;;;21.90;43.00;;;;;;2255652;55;20975;-66
2023/10/13 02:03:17;;;;;;;4.00;1.55;;;21.80;43.00;;;;;;2255125;55;21065;-66
2023/10/13 02:05:47;;;;;;;2.72;1.30;;;21.80;43.00;;;;;;2255278;55;20974;-69
2023/10/13 02:08:22;;;;;;;4.43;1.67;;;21.70;43.20;;;;;;2482493;55;20950;-66
2023/10/13 02:10:52;;;;;;;4.28;1.55;;;21.60;43.20;;;;;;2255812;55;21023;-70
2023/10/13 02:13:22;;;;;;;5.68;1.50;;;21.60;43.20;;;;;;2254512;55;20978;-66
2023/10/13 02:15:51;;;;;;;4.95;1.60;;;21.50;43.20;;;;;;2255137;55;20994;-67
2023/10/13 02:18:26;;;;;;;4.78;1.90;;;21.50;43.40;;;;;;2481765;55;21014;-66
2023/10/13 02:21:21;;;;;;;3.42;1.35;;;21.40;43.40;;;;;;2481271;55;21109;-68
2023/10/13 02:23:59;;;;;;;3.83;1.60;;;21.30;43.30;;;;;;2255619;55;21031;-66
2023/10/13 02:26:38;;;;;;;3.37;1.65;;;21.30;43.50;;;;;;2254437;55;21458;-68
2023/10/13 02:29:08;;;;;;;3.03;1.37;;;21.20;43.70;;;;;;2512637;55;20946;-67
2023/10/13 02:31:35;;;;;;;3.70;1.60;;;21.10;43.60;;;;;;2286089;55;21005;-66
2023/10/13 02:34:07;;;;;;;3.33;1.70;;;21.10;43.60;;;;;;2519541;55;20992;-70
2023/10/13 02:36:36;;;;;;;3.85;2.00;;;21.00;43.60;;;;;;2285981;55;22092;-66
2023/10/13 02:39:09;;;;;;;3.20;1.67;;;21.00;43.70;;;;;;2520426;55;20970;-68
2023/10/13 02:41:39;;;;;;;4.03;1.65;;;20.90;43.70;;;;;;2505560;55;21156;-66
2023/10/13 02:44:06;;;;;;;5.00;1.58;;;20.90;43.80;;;;;;2266366;56;20941;-66
2023/10/13 02:46:36;;;;;;;2.92;1.50;;;20.80;43.70;;;;;;2285878;56;20944;-66
2023/10/13 02:49:09;;;;;;;2.33;1.23;;;20.80;44.40;;;;;;2286418;56;21360;-66
2023/10/13 02:51:41;;;;;;;2.50;1.08;;;20.80;43.90;;;;;;2519057;55;21497;-66
2023/10/13 02:54:11;;;;;;;;;;;20.70;43.90;;;;;;2289249;56;21006;-66
2023/10/13 02:56:47;;;;;;;3.50;1.27;;;20.60;44.00;;;;;;2286982;56;20072;-66
2023/10/13 02:59:14;;;;;;;3.75;1.20;;;20.60;43.90;;;;;;2288419;56;20944;-66
2023/10/13 03:01:41;;;;;;;4.93;1.90;;;20.50;43.90;;;;;;2261030;56;20969;-66
2023/10/13 03:04:12;;;;;;;3.03;1.42;;;20.50;44.00;;;;;;2286490;56;20941;-67
2023/10/13 03:06:42;;;;;;;4.82;1.77;;;20.40;44.00;;;;;;2285726;56;21037;-66
2023/10/13 03:09:19;;;;;;;3.83;1.30;;;20.40;44.10;;;;;;2264856;56;20941;-66
2023/10/13 03:11:48;;;;;;;3.42;1.50;;;20.30;44.10;;;;;;2286360;56;20945;-66
2023/10/13 03:14:31;;;;;;;3.25;1.30;;;20.30;44.20;;;;;;2520447;55;20993;-71
2023/10/13 03:17:13;;;;;;;3.08;1.33;;;20.20;44.20;;;;;;2286319;56;21004;-69
2023/10/13 03:19:55;;;;;;;3.58;1.45;;;20.20;44.20;;;;;;2518863;55;21975;-66
2023/10/13 03:22:31;;;;;;;3.00;1.60;;;20.20;44.40;;;;;;2285578;56;21053;-66
2023/10/13 03:25:06;;;;;;;4.03;1.42;;;20.10;44.40;;;;;;2285996;56;21050;-68
2023/10/13 03:28:01;;;;;;;4.50;1.87;;;20.10;44.50;;;;;;2285416;56;21011;-68
2023/10/13 03:30:42;;;;;;;2.55;1.10;;;20.00;44.40;;;;;;2284471;56;20964;-69
2023/10/13 03:33:13;;;;;;;3.08;1.35;;;20.00;44.40;;;;;;2287140;56;21028;-66
2023/10/13 03:35:41;;;;;;;4.82;1.48;;;19.90;44.50;;;;;;2285615;56;20952;-66
2023/10/13 03:38:17;;;;;;;3.05;1.50;;;19.90;44.60;;;;;;2286500;56;20996;-69
2023/10/13 03:40:49;;;;;;;3.58;1.60;;;19.90;44.70;;;;;;2286089;56;21036;-66
2023/10/13 03:43:21;;;;;;;4.70;1.62;;;19.80;44.70;;;;;;2287509;56;20973;-66
2023/10/13 03:45:52;;;;;;;3.67;1.50;;;19.80;44.70;;;;;;2518899;55;21863;-66
2023/10/13 03:51:18;;;;;;;2.70;1.40;;;19.70;44.80;;;;;;2286870;56;20933;-69
2023/10/13 03:53:53;;;;;;;3.15;1.65;;;19.70;44.90;;;;;;2285214;56;20972;-66
2023/10/13 03:56:38;;;;;;;3.95;1.70;;;19.60;44.90;;;;;;2285102;56;21087;-68
2023/10/13 03:59:06;;;;;;;3.33;1.50;;;19.60;45.10;;;;;;2518035;55;21080;-69
2023/10/13 04:01:45;;;;;;;3.65;1.80;;;19.60;45.00;;;;;;2285753;56;21009;-68
2023/10/13 04:04:15;;;;;;;4.40;1.85;;;19.60;45.20;;;;;;2286315;56;20989;-66
2023/10/13 04:06:51;;;;;;;3.55;1.30;;;19.60;45.20;;;;;;2519355;55;20948;-66
2023/10/13 04:11:21;;;;;;;3.75;1.20;;;19.50;45.20;;;;;;2285270;56;21044;-66
2023/10/13 04:14:21;;;;;;;3.33;1.42;;;19.50;45.20;;;;;;2519761;55;21005;-66
2023/10/13 04:16:52;;;;;;;3.50;1.42;;;19.50;45.20;;;;;;2285506;56;21024;-67
2023/10/13 04:19:29;;;;;;;3.33;1.40;;;19.40;45.20;;;;;;2275730;56;21032;-66
2023/10/13 04:21:57;;;;;;;3.28;1.62;;;19.40;45.40;;;;;;2275876;55;20953;-66
2023/10/13 04:27:54;;;;;;;5.12;1.65;;;19.40;45.70;;;;;;2285612;56;21008;-68
2023/10/13 04:30:38;;;;;;;3.10;1.42;;;19.40;45.60;;;;;;2285835;56;21000;-66
2023/10/13 04:33:17;;;;;;;4.10;1.50;;;19.30;45.50;;;;;;2515693;55;23409;-66
2023/10/13 04:35:58;;;;;;;3.72;1.73;;;19.30;45.60;;;;;;2266851;55;20959;-67
2023/10/13 04:38:33;;;;;;;4.30;2.12;;;19.30;45.70;;;;;;2286887;56;21048;-66
2023/10/13 04:41:10;;;;;;;6.10;2.85;;;19.30;45.80;;;;;;2263954;55;21024;-69
2023/10/13 04:43:55;;;;;;;6.40;1.80;;;19.30;46.00;;;;;;2285489;56;20972;-66
2023/10/13 04:46:35;;;;;;;3.25;1.55;;;19.20;45.90;;;;;;2285160;56;21052;-69
2023/10/13 04:49:10;;;;;;;5.68;1.90;;;19.20;46.00;;;;;;2520267;55;21930;-68
2023/10/13 04:54:44;;;;;;;4.68;2.05;;;19.20;46.00;;;;;;2285826;56;20953;-69
2023/10/13 05:49:18;;;;;;;5.78;2.03;;;19.00;46.90;;;;;;2288574;56;21775;-66
2023/10/13 05:51:57;;;;;;;3.40;1.70;;;19.00;46.90;;;;;;2285851;56;20964;-66
2023/10/13 06:28:40;;;;;;;3.55;1.62;;;18.90;46.90;;;;;;2519948;55;20969;-66
2023/10/13 10:36:00;;;;;;;4.12;1.15;;;18.90;46.90;;;;;;2527380;53;22749;-68
2023/10/13 10:41:13;;;;;;;4.35;1.30;;;27.30;40.50;;;;;;2329519;54;21700;-66
2023/10/13 10:43:45;;;;;;;3.28;1.42;;;27.30;40.50;;;;;;2277911;55;20950;-65
2023/10/13 10:46:27;;;;;;;3.60;1.42;;;27.40;40.00;;;;;;2510930;54;21758;-67
2023/10/13 10:49:01;;;;;;;3.33;1.52;;;27.50;38.90;;;;;;2525373;53;20939;-67
2023/10/13 10:51:31;;;;;;;3.80;1.70;;;27.60;39.30;;;;;;2327223;55;21043;-66
2023/10/13 10:53:58;;;;;;;3.15;1.50;;;27.70;39.40;;;;;;2569532;53;21048;-66
2023/10/13 10:56:36;;;;;;;5.87;1.65;;;27.80;39.30;;;;;;2569490;53;20937;-66
2023/10/13 10:59:04;;;;;;;5.47;1.75;;;27.90;39.00;;;;;;2326127;55;21008;-67
2023/10/13 11:01:38;;;;;;;6.32;2.10;;;28.00;38.70;;;;;;2569830;53;21040;-69
2023/10/13 11:04:08;;;;;;;5.62;2.08;;;28.10;38.50;;;;;;2327090;55;20984;-66
2023/10/13 11:06:42;;;;;;;3.78;1.42;;;28.20;38.10;;;;;;2569652;53;20961;-69
2023/10/13 11:18:40;;;;;;;4.00;1.33;;;28.30;38.30;;;;;;2569813;53;20987;-68
2023/10/13 11:21:11;;;;;;;4.10;1.55;;;28.70;37.80;;;;;;2326293;55;21017;-65
2023/10/13 11:23:39;;;;;;;2.87;1.35;;;28.80;38.00;;;;;;2569870;53;20924;-68
2023/10/13 11:26:07;;;;;;;6.47;2.00;;;28.90;37.70;;;;;;2327296;55;20957;-67
2023/10/13 11:28:34;;;;;;;3.42;1.42;;;29.00;37.60;;;;;;2570622;53;21028;-68
2023/10/13 11:31:10;;;;;;;4.62;1.33;;;29.00;37.30;;;;;;2327160;55;20956;-66
2023/10/13 11:33:46;;;;;;;4.87;1.80;;;29.10;37.10;;;;;;2326817;55;20997;-66
2023/10/13 11:36:17;;;;;;;4.78;1.62;;;29.20;36.90;;;;;;2547439;53;21004;-66
2023/10/13 11:38:49;;;;;;;3.58;1.12;;;29.20;36.60;;;;;;2310142;54;21007;-67
2023/10/13 11:41:16;;;;;;;;;;;29.30;36.70;;;;;;2312989;55;21014;-68
2023/10/13 11:47:47;;;;;;;3.58;1.30;;;29.50;36.50;;;;;;2546846;53;21011;-68
2023/10/13 11:50:31;;;;;;;3.03;1.50;;;29.60;36.40;;;;;;2309424;54;21049;-67
2023/10/13 11:52:58;;;;;;;2.75;1.35;;;29.60;36.50;;;;;;2542964;53;21344;-67
2023/10/13 11:55:25;;;;;;;4.43;1.70;;;29.70;36.20;;;;;;2307611;55;20970;-68
2023/10/13 11:57:51;;;;;;;4.10;1.40;;;29.80;36.00;;;;;;2312252;55;20967;-66
2023/10/13 12:00:26;;;;;;;3.33;1.35;;;29.80;35.80;;;;;;2542455;53;21051;-67
2023/10/13 12:05:49;;;;;;;3.97;1.50;;;29.90;35.50;;;;;;2312988;54;21082;-67
2023/10/13 12:08:22;;;;;;;4.07;1.60;;;30.00;35.50;;;;;;2552819;53;20917;-65
2023/10/13 12:10:59;;;;;;;4.07;1.65;;;30.10;35.50;;;;;;2518893;53;21015;-66
2023/10/13 12:13:26;;;;;;;4.87;1.70;;;30.10;35.20;;;;;;2552443;53;21433;-66
2023/10/13 12:15:56;;;;;;;4.90;1.98;;;30.20;35.10;;;;;;2552751;53;20967;-66
2023/10/13 12:18:23;;;;;;;4.03;1.75;;;30.30;35.00;;;;;;2305592;54;20964;-66
2023/10/13 12:20:50;;;;;;;4.28;2.12;;;30.30;34.80;;;;;;2548065;53;20934;-70
2023/10/13 12:23:19;;;;;;;4.82;2.35;;;30.40;34.70;;;;;;2539096;53;21014;-67
2023/10/13 12:25:57;;;;;;;4.43;2.00;;;30.50;34.60;;;;;;2325115;54;21041;-68
2023/10/13 12:28:26;;;;;;;3.75;1.73;;;30.50;34.50;;;;;;2335547;54;20958;-66
2023/10/13 12:31:06;;;;;;;4.32;1.90;;;30.60;34.40;;;;;;2579966;53;21014;-69
2023/10/13 12:33:42;;;;;;;3.97;1.65;;;30.70;33.60;;;;;;2580021;53;21864;-65
2023/10/13 12:36:26;;;;;;;6.55;1.70;;;30.70;34.00;;;;;;2554469;53;22217;-69
2023/10/13 12:50:44;;;;;;;5.62;1.42;;;31.20;33.60;;;;;;2331723;54;21871;-68
2023/10/13 12:53:13;;;;;;;4.05;1.62;;;31.20;33.50;;;;;;2575831;53;21034;-67
2023/10/13 12:55:40;;;;;;;4.47;1.90;;;31.20;33.40;;;;;;2331280;55;20979;-70
2023/10/13 12:58:08;;;;;;;3.75;1.70;;;31.30;33.50;;;;;;2331314;54;20991;-68
2023/10/13 13:00:34;;;;;;;2.65;1.15;;;31.30;33.20;;;;;;2573844;53;20914;-68
2023/10/13 13:03:11;;;;;;;5.07;1.83;;;31.40;33.20;;;;;;2306070;54;20975;-67
2023/10/13 13:05:44;;;;;;;3.42;1.30;;;31.40;32.90;;;;;;2575659;53;21603;-68
2023/10/13 13:08:12;;;;;;;4.57;1.33;;;31.50;32.80;;;;;;2570794;53;21006;-67
2023/10/13 13:10:39;;;;;;;2.28;1.12;;;31.50;32.80;;;;;;2309180;54;21018;-68
2023/10/13 13:13:09;;;;;;;3.70;1.62;;;31.60;32.60;;;;;;2331987;55;20974;-69
2023/10/13 13:15:35;;;;;;;3.50;1.35;;;31.60;32.10;;;;;;2575804;53;20946;-68
2023/10/13 13:18:09;;;;;;;3.20;1.27;;;31.60;32.00;;;;;;2330896;55;20946;-68
2023/10/13 13:20:39;;;;;;;3.20;1.30;;;31.70;31.80;;;;;;2332478;54;21767;-67
2023/10/13 13:23:06;;;;;;;4.07;1.27;;;31.70;31.90;;;;;;2540872;53;20971;-67
2023/10/13 13:25:33;;;;;;;5.72;1.25;;;31.80;31.80;;;;;;2332107;55;21116;-66
2023/10/13 13:28:04;;;;;;;3.10;1.25;;;31.80;31.80;;;;;;2331816;54;20931;-67
2023/10/13 13:30:33;;;;;;;2.97;1.35;;;31.80;31.70;;;;;;2313512;54;21012;-65
2023/10/13 13:33:03;;;;;;;4.85;1.60;;;31.80;31.60;;;;;;2567931;53;20990;-68
2023/10/13 13:35:34;;;;;;;3.90;1.52;;;31.90;31.50;;;;;;2573513;53;20987;-67
2023/10/13 13:38:09;;;;;;;5.03;1.37;;;31.90;31.20;;;;;;2574788;53;20970;-67
2023/10/13 13:40:38;;;;;;;3.50;1.70;;;31.90;31.30;;;;;;2331454;55;20970;-68
2023/10/13 13:43:17;;;;;;;4.47;1.40;;;31.90;30.90;;;;;;2331285;55;20938;-68
2023/10/13 13:45:45;;;;;;;4.10;1.40;;;32.00;30.90;;;;;;2549518;53;20963;-68
2023/10/13 13:48:15;;;;;;;3.30;1.20;;;32.00;30.90;;;;;;2321429;55;20950;-69
2023/10/13 13:50:44;;;;;;;4.10;1.10;;;32.00;30.80;;;;;;2329035;55;21709;-68
2023/10/13 13:53:13;;;;;;;3.35;1.20;;;32.10;30.70;;;;;;2326522;55;20951;-68
2023/10/13 13:55:43;;;;;;;2.53;1.10;;;32.10;30.50;;;;;;2330488;54;20986;-68
2023/10/13 13:58:09;;;;;;;3.45;1.37;;;32.10;30.30;;;;;;2331220;55;21013;-69
2023/10/13 14:00:37;;;;;;;3.50;1.48;;;32.20;30.50;;;;;;2331544;55;21105;-68
2023/10/13 14:03:12;;;;;;;4.43;1.60;;;32.20;30.30;;;;;;2331216;54;20963;-69
2023/10/13 14:05:45;;;;;;;2.95;1.20;;;32.20;30.10;;;;;;2329759;55;20926;-69
2023/10/13 14:08:15;;;;;;;3.28;1.05;;;32.30;29.80;;;;;;2331953;55;21590;-69
2023/10/13 14:13:48;;;;;;;2.70;1.08;;;32.30;29.70;;;;;;2308731;54;20969;-66
2023/10/13 14:16:23;;;;;;;2.90;0.95;;;32.40;29.70;;;;;;2309036;54;21025;-69
2023/10/13 14:18:52;;;;;;;2.65;0.90;;;32.40;29.40;;;;;;2328443;54;21035;-67
2023/10/13 14:21:19;;;;;;;2.50;0.90;;;32.40;29.40;;;;;;2335583;53;20919;-68
2023/10/13 14:23:47;;;;;;;2.95;0.80;;;32.50;29.50;;;;;;2335676;54;20942;-66
2023/10/13 14:26:14;;;;;;;2.20;0.85;;;32.50;29.50;;;;;;2334780;55;20983;-69
2023/10/13 14:28:51;;;;;;;2.20;0.98;;;32.50;29.30;;;;;;2579440;53;21584;-68
2023/10/13 14:31:21;;;;;;;2.70;1.10;;;32.50;29.10;;;;;;2335808;54;20963;-65
2023/10/13 14:33:47;;;;;;;4.62;1.27;;;32.60;29.00;;;;;;2332225;55;20951;-67
2023/10/13 14:36:17;;;;;;;2.37;1.10;;;32.60;28.90;;;;;;2308262;55;21647;-69
2023/10/13 14:38:51;;;;;;;3.03;1.08;;;32.60;28.80;;;;;;2546965;54;20941;-69
2023/10/13 14:41:18;;;;;;;3.30;1.27;;;32.60;28.60;;;;;;2308960;55;21869;-68
2023/10/13 14:43:47;;;;;;;2.80;1.12;;;32.60;28.40;;;;;;2547207;54;20949;-67
2023/10/13 14:46:18;;;;;;;2.05;0.90;;;32.60;28.40;;;;;;2547043;54;20926;-67
2023/10/13 14:48:48;;;;;;;2.95;0.95;;;32.60;28.20;;;;;;2308623;55;20952;-68
2023/10/13 14:51:17;;;;;;;3.42;0.82;;;32.60;28.10;;;;;;2308104;55;20991;-69
2023/10/13 14:53:44;;;;;;;13.90;3.80;;;32.60;27.90;;;;;;2308065;55;21000;-67
2023/10/13 14:56:14;;;;;;;7.12;1.85;;;32.60;28.70;;;;;;2308508;55;21020;-67
2023/10/13 14:58:43;;;;;;;4.22;1.10;;;32.60;29.80;;;;;;2308322;55;21722;-67
2023/10/13 15:01:19;;;;;;;2.40;1.00;;;32.50;29.80;;;;;;2306601;54;20943;-68
2023/10/13 15:03:55;;;;;;;2.15;0.95;;;32.50;29.50;;;;;;2550952;53;20955;-66
2023/10/13 15:06:25;;;;;;;3.70;0.85;;;32.40;29.40;;;;;;2340263;55;21019;-67
2023/10/13 15:08:54;;;;;;;2.97;1.05;;;32.30;29.80;;;;;;2340274;54;21060;-70
2023/10/13 15:11:26;;;;;;;2.97;1.02;;;32.10;29.90;;;;;;2340065;54;20952;-66
2023/10/13 15:13:55;;;;;;;;;;;32.00;29.90;;;;;;2329755;54;20979;-70
2023/10/13 15:16:24;;;;;;;2.80;0.80;;;32.00;30.00;;;;;;2332059;54;20079;-70
2023/10/13 15:18:53;;;;;;;2.00;0.80;;;31.80;29.90;;;;;;2586681;53;21000;-70
2023/10/13 15:21:30;;;;;;;2.90;1.00;;;31.70;29.90;;;;;;2340595;55;21025;-69
2023/10/13 15:24:03;;;;;;;2.70;0.93;;;31.60;29.90;;;;;;2317093;54;20981;-68
2023/10/13 15:26:30;;;;;;;2.92;1.00;;;31.50;30.10;;;;;;2539764;54;21438;-67
2023/10/13 15:29:08;;;;;;;3.65;1.30;;;31.40;30.00;;;;;;2547907;54;20962;-66
2023/10/13 15:31:38;;;;;;;2.20;0.85;;;31.30;30.00;;;;;;2547469;54;21489;-68
2023/10/13 15:34:13;;;;;;;1.52;0.60;;;31.20;30.10;;;;;;2308395;54;21013;-71
2023/10/13 15:36:43;;;;;;;2.47;0.98;;;31.10;30.10;;;;;;2547033;54;20930;-69
2023/10/13 15:39:15;;;;;;;3.58;1.02;;;31.00;30.00;;;;;;2309005;54;21588;-69
2023/10/13 15:41:42;;;;;;;2.83;0.95;;;31.00;30.00;;;;;;2312840;55;20972;-69
2023/10/13 15:44:12;;;;;;;2.60;0.85;;;31.00;30.30;;;;;;2294838;55;21010;-69
2023/10/13 15:46:40;;;;;;;2.65;0.90;;;30.90;30.10;;;;;;2547882;54;20973;-69
2023/10/13 15:49:12;;;;;;;2.80;1.00;;;30.90;30.10;;;;;;2308328;54;21332;-70
2023/10/13 15:51:40;;;;;;;2.85;0.90;;;30.80;30.20;;;;;;2547453;53;21013;-70
2023/10/13 15:54:14;;;;;;;2.20;0.80;;;30.80;30.20;;;;;;2559826;53;20964;-70
2023/10/13 15:56:43;;;;;;;2.35;0.88;;;30.80;30.60;;;;;;2547009;54;20913;-70
2023/10/13 15:59:10;;;;;;;2.58;1.20;;;30.80;30.60;;;;;;2547625;54;21399;-69
2023/10/13 16:01:38;;;;;;;3.20;0.98;;;30.70;30.80;;;;;;2308687;55;20985;-69
2023/10/13 16:04:10;;;;;;;2.80;1.00;;;30.70;31.00;;;;;;2567823;53;21024;-69
2023/10/13 16:06:50;;;;;;;3.87;0.90;;;30.70;30.90;;;;;;2580408;53;20968;-71
2023/10/13 16:09:22;;;;;;;2.22;0.80;;;30.60;30.90;;;;;;2335270;55;20979;-71
2023/10/13 16:11:52;;;;;;;2.17;0.82;;;30.60;31.00;;;;;;2315231;55;20961;-70
2023/10/13 16:14:18;;;;;;;2.20;0.80;;;30.50;30.90;;;;;;2308385;54;21485;-69
2023/10/13 16:16:46;;;;;;;4.03;1.15;;;30.40;31.20;;;;;;2308400;55;21417;-71
2023/10/13 16:19:14;;;;;;;1.95;0.88;;;30.40;31.30;;;;;;2546456;54;20945;-68
2023/10/13 16:21:46;;;;;;;3.25;0.80;;;30.30;31.30;;;;;;2538834;54;22190;-69
2023/10/13 16:24:17;;;;;;;1.98;0.90;;;30.30;31.20;;;;;;2547992;54;20933;-68
2023/10/13 16:26:52;;;;;;;2.40;0.85;;;30.20;31.40;;;;;;2308565;55;20949;-69
2023/10/13 16:29:21;;;;;;;5.18;1.12;;;30.10;31.60;;;;;;2564117;53;21028;-73
2023/10/13 16:31:48;;;;;;;3.53;0.90;;;30.00;31.50;;;;;;2550155;53;21004;-69
2023/10/13 16:34:18;;;;;;;3.78;1.30;;;29.90;31.50;;;;;;2308350;54;21017;-68
2023/10/13 16:36:46;;;;;;;3.55;1.08;;;29.80;31.50;;;;;;2554010;53;20957;-71
2023/10/13 16:39:15;;;;;;;3.67;1.17;;;29.80;31.50;;;;;;2556201;53;20900;-69
2023/10/13 16:41:47;;;;;;;2.40;1.10;;;29.70;31.60;;;;;;2335642;55;21789;-70
2023/10/13 16:44:13;;;;;;;3.87;1.02;;;29.50;31.50;;;;;;2334981;55;20935;-68
2023/10/13 16:46:40;;;;;;;3.15;0.80;;;29.40;31.60;;;;;;2580088;53;21364;-67
2023/10/13 16:49:08;;;;;;;3.10;1.20;;;29.30;31.60;;;;;;2334154;55;20977;-66
2023/10/13 16:51:34;;;;;;;3.25;0.95;;;29.20;32.00;;;;;;2335645;55;21432;-72
2023/10/13 16:54:01;;;;;;;2.97;0.93;;;29.10;32.10;;;;;;2579978;53;20976;-69
2023/10/13 16:56:27;;;;;;;2.10;0.90;;;29.00;32.10;;;;;;2331348;55;21393;-69
2023/10/13 16:58:54;;;;;;;4.53;1.42;;;28.90;32.10;;;;;;2308913;55;20929;-68
2023/10/13 17:01:24;;;;;;;4.28;1.02;;;28.70;32.20;;;;;;2550792;53;20949;-68
2023/10/13 17:03:51;;;;;;;1.75;0.60;;;28.60;32.30;;;;;;2310447;55;20941;-69
2023/10/13 17:06:17;;;;;;;4.60;0.95;;;28.50;32.40;;;;;;2309291;55;20914;-69
2023/10/13 17:08:47;;;;;;;2.53;1.02;;;28.40;32.40;;;;;;2308537;55;20941;-70
2023/10/13 17:11:15;;;;;;;2.87;0.90;;;28.20;32.40;;;;;;2547231;53;21847;-69
2023/10/13 17:13:45;;;;;;;3.20;1.20;;;28.10;32.50;;;;;;2308610;55;20925;-69
2023/10/13 17:16:19;;;;;;;4.82;1.00;;;28.00;32.20;;;;;;2308582;55;20959;-69
2023/10/13 17:18:47;;;;;;;3.22;1.12;;;27.90;32.20;;;;;;2547607;53;21393;-68
2023/10/13 17:21:21;;;;;;;4.55;1.30;;;27.80;32.30;;;;;;2308724;55;21804;-70
2023/10/13 17:23:52;;;;;;;2.30;0.80;;;27.70;32.30;;;;;;2309119;55;21422;-67
2023/10/13 17:26:22;;;;;;;2.45;0.85;;;27.60;32.40;;;;;;2309465;55;20954;-68
2023/10/13 17:28:55;;;;;;;2.75;0.90;;;27.50;32.40;;;;;;2547795;53;20944;-68
2023/10/13 17:31:26;;;;;;;2.80;1.00;;;27.40;32.30;;;;;;2314841;54;21008;-68
2023/10/13 17:33:53;;;;;;;2.62;1.00;;;27.30;32.40;;;;;;2571194;53;20982;-68
2023/10/13 17:36:19;;;;;;;2.45;1.00;;;27.20;32.70;;;;;;2325581;54;21476;-68
2023/10/13 17:38:46;;;;;;;2.60;0.98;;;27.20;32.70;;;;;;2314180;54;21017;-68
2023/10/13 17:41:13;;;;;;;2.20;0.82;;;27.10;32.60;;;;;;2331618;55;20958;-68
2023/10/13 17:43:39;;;;;;;1.95;0.80;;;27.00;32.50;;;;;;2331577;55;21012;-68
2023/10/13 17:46:10;;;;;;;3.62;1.35;;;27.00;32.60;;;;;;2575555;53;21833;-68
2023/10/13 17:48:37;;;;;;;3.97;1.00;;;27.00;32.60;;;;;;2332636;55;21788;-67
2023/10/13 17:51:05;;;;;;;2.22;0.80;;;26.90;32.70;;;;;;2331521;55;21463;-68
2023/10/13 17:53:37;;;;;;;2.08;0.90;;;26.90;32.80;;;;;;2331325;55;20957;-67
2023/10/13 17:56:05;;;;;;;;;;;26.90;32.90;;;;;;2335440;55;20962;-66
2023/10/13 17:58:32;;;;;;;2.20;0.70;;;26.90;32.90;;;;;;2331411;55;20118;-67
2023/10/13 18:01:07;;;;;;;2.67;0.77;;;26.90;32.80;;;;;;2575598;53;21007;-67
2023/10/13 18:03:39;;;;;;;2.28;0.88;;;26.80;32.70;;;;;;2547679;54;21896;-66
2023/10/13 18:06:10;;;;;;;3.05;1.25;;;26.80;33.00;;;;;;2548580;53;20988;-65
2023/10/13 18:08:37;;;;;;;4.85;1.00;;;26.80;33.00;;;;;;2547479;54;20934;-67
2023/10/13 18:11:06;;;;;;;2.60;1.00;;;26.80;32.90;;;;;;2309746;55;20969;-66
2023/10/13 18:13:32;;;;;;;2.80;1.10;;;26.80;32.90;;;;;;2308500;55;20889;-64
2023/10/13 18:16:00;;;;;;;2.67;0.90;;;26.80;32.90;;;;;;2308635;55;21750;-67
2023/10/13 18:18:27;;;;;;;3.42;1.15;;;26.80;32.90;;;;;;2308539;54;20960;-67
2023/10/13 18:21:01;;;;;;;3.15;1.20;;;26.80;32.90;;;;;;2308426;56;21004;-70
2023/10/13 18:23:28;;;;;;;3.53;0.90;;;26.80;32.90;;;;;;2310714;54;21072;-65
2023/10/13 18:25:55;;;;;;;3.95;1.30;;;26.80;32.90;;;;;;2547691;53;20997;-65
2023/10/13 18:28:21;;;;;;;3.10;1.00;;;26.80;33.00;;;;;;2550712;53;20925;-65
2023/10/13 18:31:03;;;;;;;2.15;0.93;;;26.80;33.00;;;;;;2558018;53;20937;-66
2023/10/13 18:33:32;;;;;;;4.25;1.08;;;26.90;32.90;;;;;;2318373;55;20947;-66
2023/10/13 18:36:11;;;;;;;4.62;1.17;;;26.90;33.10;;;;;;2299504;54;21117;-63
2023/10/13 18:38:37;;;;;;;2.15;0.90;;;27.00;33.00;;;;;;2547722;54;21738;-65
2023/10/13 18:41:05;;;;;;;3.35;1.02;;;26.90;33.10;;;;;;2545564;53;20941;-64
2023/10/13 18:43:31;;;;;;;3.05;1.05;;;27.00;33.10;;;;;;2301958;54;21440;-64
2023/10/13 18:46:06;;;;;;;2.95;1.25;;;27.00;33.10;;;;;;2547313;53;21479;-64
2023/10/13 18:48:45;;;;;;;4.15;1.08;;;27.00;33.00;;;;;;2308745;55;21477;-66
2023/10/13 18:51:16;;;;;;;4.68;1.37;;;27.10;32.90;;;;;;2525059;53;21420;-63
2023/10/13 18:53:43;;;;;;;2.92;1.30;;;27.10;33.00;;;;;;2547940;54;21756;-64
2023/10/13 18:56:20;;;;;;;2.17;1.02;;;27.10;33.00;;;;;;2565720;53;21002;-64
2023/10/13 18:58:53;;;;;;;2.58;1.12;;;27.20;32.80;;;;;;2331890;54;20938;-64
2023/10/13 19:01:29;;;;;;;3.58;1.40;;;27.10;32.90;;;;;;2332111;55;21456;-65
2023/10/13 19:03:59;;;;;;;3.83;1.27;;;27.20;32.90;;;;;;2576327;53;21865;-66
2023/10/13 19:06:27;;;;;;;3.37;1.30;;;27.20;32.80;;;;;;2331901;55;20939;-70
2023/10/13 19:08:54;;;;;;;5.22;1.27;;;27.20;32.80;;;;;;2575742;53;20943;-65
2023/10/13 19:11:20;;;;;;;3.22;1.25;;;27.30;32.80;;;;;;2331705;54;21419;-66
2023/10/13 19:13:49;;;;;;;3.83;1.20;;;27.30;32.70;;;;;;2331982;54;21012;-67
2023/10/13 19:16:25;;;;;;;2.47;1.05;;;27.30;32.50;;;;;;2575444;53;21451;-69
2023/10/13 19:18:51;;;;;;;3.20;1.30;;;27.30;32.40;;;;;;2332034;55;20958;-67
2023/10/13 19:21:19;;;;;;;5.65;1.20;;;27.30;32.30;;;;;;2575480;53;20927;-65
2023/10/13 19:23:50;;;;;;;3.78;1.25;;;27.40;32.30;;;;;;2576307;53;20994;-66
2023/10/13 19:26:26;;;;;;;2.75;1.30;;;27.40;32.10;;;;;;2332172;55;20994;-65